sensor_id;sensor_type;location;lat;lon;timestamp;pressure;altitude;pressure_sealevel;temperature;humidity
49397;BME280;35615;41.410;2.194;2023-03-26T00:02:12;101632.81;;;19.38;44.43
49397;BME280;35615;41.410;2.194;2023-03-26T00:04:43;101640.66;;;19.38;44.57
49397;BME280;35615;41.410;2.194;2023-03-26T00:07:12;101640.59;;;19.34;44.80
49397;BME280;35615;41.410;2.194;2023-03-26T00:09:47;101640.75;;;19.41;45.13
49397;BME280;35615;41.410;2.194;2023-03-26T00:12:15;101640.78;;;19.44;44.92
49397;BME280;35615;41.410;2.194;2023-03-26T00:14:42;101635.44;;;19.38;44.70
49397;BME280;35615;41.410;2.194;2023-03-26T00:17:09;101631.94;;;19.39;44.97
49397;BME280;35615;41.410;2.194;2023-03-26T00:19:37;101623.25;;;19.40;44.95
49397;BME280;35615;41.410;2.194;2023-03-26T00:22:08;101631.81;;;19.30;46.20
49397;BME280;35615;41.410;2.194;2023-03-26T00:24:39;101630.97;;;19.33;46.54
49397;BME280;35615;41.410;2.194;2023-03-26T00:27:06;101631.41;;;18.62;49.31
49397;BME280;35615;41.410;2.194;2023-03-26T00:29:34;101624.09;;;18.86;48.83
49397;BME280;35615;41.410;2.194;2023-03-26T00:32:01;101628.72;;;19.03;48.17
49397;BME280;35615;41.410;2.194;2023-03-26T00:34:38;101628.53;;;18.92;49.04
49397;BME280;35615;41.410;2.194;2023-03-26T00:37:07;101622.56;;;18.54;50.54
49397;BME280;35615;41.410;2.194;2023-03-26T00:39:34;101623.19;;;18.41;51.29
49397;BME280;35615;41.410;2.194;2023-03-26T00:42:03;101613.53;;;18.40;51.22
49397;BME280;35615;41.410;2.194;2023-03-26T00:44:35;101604.38;;;18.62;50.52
49397;BME280;35615;41.410;2.194;2023-03-26T00:47:02;101601.13;;;18.73;50.13
49397;BME280;35615;41.410;2.194;2023-03-26T00:49:30;101591.56;;;18.74;50.19
49397;BME280;35615;41.410;2.194;2023-03-26T00:51:58;101589.78;;;18.73;50.19
49397;BME280;35615;41.410;2.194;2023-03-26T00:54:29;101581.09;;;18.74;50.38
49397;BME280;35615;41.410;2.194;2023-03-26T00:57:01;101584.59;;;18.31;52.06
49397;BME280;35615;41.410;2.194;2023-03-26T01:02:30;101578.16;;;18.60;50.95
49397;BME280;35615;41.410;2.194;2023-03-26T01:08:31;101562.22;;;18.46;52.13
49397;BME280;35615;41.410;2.194;2023-03-26T01:11:20;101568.47;;;18.09;53.35
49397;BME280;35615;41.410;2.194;2023-03-26T01:14:23;101560.31;;;18.39;52.54
49397;BME280;35615;41.410;2.194;2023-03-26T01:16:54;101558.66;;;18.41;51.68
49397;BME280;35615;41.410;2.194;2023-03-26T01:22:17;101548.28;;;18.47;51.64
49397;BME280;35615;41.410;2.194;2023-03-26T01:24:45;101539.78;;;18.59;51.21
49397;BME280;35615;41.410;2.194;2023-03-26T01:29:59;101518.66;;;18.50;51.25
49397;BME280;35615;41.410;2.194;2023-03-26T01:32:41;101521.47;;;18.61;51.08
49397;BME280;35615;41.410;2.194;2023-03-26T01:35:25;101518.75;;;18.53;51.56
49397;BME280;35615;41.410;2.194;2023-03-26T01:40:36;101510.75;;;18.00;53.44
49397;BME280;35615;41.410;2.194;2023-03-26T01:43:20;101516.63;;;17.88;53.75
49397;BME280;35615;41.410;2.194;2023-03-26T01:45:52;101515.47;;;17.74;54.22
49397;BME280;35615;41.410;2.194;2023-03-26T01:48:49;101500.72;;;18.21;52.86
49397;BME280;35615;41.410;2.194;2023-03-26T01:51:29;101499.94;;;18.27;53.01
49397;BME280;35615;41.410;2.194;2023-03-26T01:53:56;101495.16;;;18.51;51.87
49397;BME280;35615;41.410;2.194;2023-03-26T02:01:59;101494.03;;;18.37;52.63
49397;BME280;35615;41.410;2.194;2023-03-26T02:07:30;101479.63;;;18.12;53.48
49397;BME280;35615;41.410;2.194;2023-03-26T02:10:06;101470.22;;;18.22;52.88
49397;BME280;35615;41.410;2.194;2023-03-26T02:12:39;101467.59;;;18.22;52.88
49397;BME280;35615;41.410;2.194;2023-03-26T02:15:08;101478.91;;;18.19;52.79
49397;BME280;35615;41.410;2.194;2023-03-26T02:17:35;101471.19;;;18.28;52.54
49397;BME280;35615;41.410;2.194;2023-03-26T02:20:08;101465.22;;;17.89;54.07
49397;BME280;35615;41.410;2.194;2023-03-26T02:22:37;101461.06;;;17.98;53.64
49397;BME280;35615;41.410;2.194;2023-03-26T02:25:11;101461.31;;;18.12;53.38
49397;BME280;35615;41.410;2.194;2023-03-26T02:27:39;101455.06;;;18.04;53.59
49397;BME280;35615;41.410;2.194;2023-03-26T02:30:14;101458.81;;;18.18;53.03
49397;BME280;35615;41.410;2.194;2023-03-26T02:32:47;101455.50;;;18.28;52.75
49397;BME280;35615;41.410;2.194;2023-03-26T02:35:21;101449.63;;;18.40;52.18
49397;BME280;35615;41.410;2.194;2023-03-26T02:37:56;101440.75;;;18.32;52.16
49397;BME280;35615;41.410;2.194;2023-03-26T02:40:23;101439.16;;;18.40;52.09
49397;BME280;35615;41.410;2.194;2023-03-26T02:42:52;101432.25;;;18.44;51.64
49397;BME280;35615;41.410;2.194;2023-03-26T02:45:20;101427.06;;;18.48;51.35
49397;BME280;35615;41.410;2.194;2023-03-26T02:47:47;101419.84;;;18.32;51.76
49397;BME280;35615;41.410;2.194;2023-03-26T02:50:52;101420.09;;;17.97;53.12
49397;BME280;35615;41.410;2.194;2023-03-26T02:53:45;101426.59;;;18.21;52.34
49397;BME280;35615;41.410;2.194;2023-03-26T02:56:36;101431.16;;;18.31;52.24
49397;BME280;35615;41.410;2.194;2023-03-26T02:59:35;101434.81;;;18.41;51.73
49397;BME280;35615;41.410;2.194;2023-03-26T03:02:38;101416.41;;;18.36;51.43
49397;BME280;35615;41.410;2.194;2023-03-26T03:05:24;101415.69;;;18.45;50.96
49397;BME280;35615;41.410;2.194;2023-03-26T03:08:18;101412.06;;;18.38;51.09
49397;BME280;35615;41.410;2.194;2023-03-26T03:11:21;101411.31;;;18.44;50.61
49397;BME280;35615;41.410;2.194;2023-03-26T03:13:53;101406.09;;;18.45;50.18
49397;BME280;35615;41.410;2.194;2023-03-26T03:16:23;101400.00;;;18.46;50.11
49397;BME280;35615;41.410;2.194;2023-03-26T03:18:51;101396.53;;;18.47;49.95
49397;BME280;35615;41.410;2.194;2023-03-26T03:21:35;101388.69;;;18.49;49.78
49397;BME280;35615;41.410;2.194;2023-03-26T03:24:03;101391.22;;;18.41;49.81
49397;BME280;35615;41.410;2.194;2023-03-26T03:26:34;101388.66;;;18.46;49.57
49397;BME280;35615;41.410;2.194;2023-03-26T03:29:14;101383.41;;;18.44;49.53
49397;BME280;35615;41.410;2.194;2023-03-26T03:31:42;101382.53;;;18.45;49.39
49397;BME280;35615;41.410;2.194;2023-03-26T03:34:21;101375.56;;;18.46;48.94
49397;BME280;35615;41.410;2.194;2023-03-26T03:36:50;101375.53;;;18.43;49.02
49397;BME280;35615;41.410;2.194;2023-03-26T03:39:34;101377.28;;;18.44;49.00
49397;BME280;35615;41.410;2.194;2023-03-26T03:42:01;101375.56;;;18.44;49.18
49397;BME280;35615;41.410;2.194;2023-03-26T03:44:29;101370.16;;;18.35;49.22
49397;BME280;35615;41.410;2.194;2023-03-26T03:46:57;101361.56;;;18.41;48.96
49397;BME280;35615;41.410;2.194;2023-03-26T03:49:24;101370.28;;;18.41;48.86
49397;BME280;35615;41.410;2.194;2023-03-26T03:51:56;101355.28;;;18.31;48.94
49397;BME280;35615;41.410;2.194;2023-03-26T03:54:31;101357.97;;;18.36;48.91
49397;BME280;35615;41.410;2.194;2023-03-26T03:57:07;101359.69;;;18.34;49.55
49397;BME280;35615;41.410;2.194;2023-03-26T03:59:41;101357.13;;;18.38;49.26
49397;BME280;35615;41.410;2.194;2023-03-26T04:02:15;101352.75;;;18.36;49.18
49397;BME280;35615;41.410;2.194;2023-03-26T04:04:57;101357.09;;;18.35;49.28
49397;BME280;35615;41.410;2.194;2023-03-26T04:07:27;101354.50;;;18.37;49.11
49397;BME280;35615;41.410;2.194;2023-03-26T04:10:07;101354.41;;;18.29;49.44
49397;BME280;35615;41.410;2.194;2023-03-26T04:12:53;101353.59;;;18.35;49.26
49397;BME280;35615;41.410;2.194;2023-03-26T04:15:40;101344.00;;;18.34;49.49
49397;BME280;35615;41.410;2.194;2023-03-26T04:18:09;101343.97;;;18.32;49.37
49397;BME280;35615;41.410;2.194;2023-03-26T04:20:40;101341.34;;;18.31;49.19
49397;BME280;35615;41.410;2.194;2023-03-26T04:23:19;101343.13;;;18.33;49.56
49397;BME280;35615;41.410;2.194;2023-03-26T04:25:52;101342.25;;;18.33;49.34
49397;BME280;35615;41.410;2.194;2023-03-26T04:28:51;101350.13;;;18.36;49.53
49397;BME280;35615;41.410;2.194;2023-03-26T04:31:25;101344.84;;;18.33;49.38
49397;BME280;35615;41.410;2.194;2023-03-26T04:34:07;101342.25;;;18.33;49.55
49397;BME280;35615;41.410;2.194;2023-03-26T04:36:49;101349.19;;;18.32;49.59
49397;BME280;35615;41.410;2.194;2023-03-26T04:39:27;101350.78;;;18.21;49.57
49397;BME280;35615;41.410;2.194;2023-03-26T04:42:15;101357.00;;;18.29;49.42
49397;BME280;35615;41.410;2.194;2023-03-26T04:45:06;101347.28;;;18.22;49.88
49397;BME280;35615;41.410;2.194;2023-03-26T04:47:33;101349.06;;;18.23;49.57
49397;BME280;35615;41.410;2.194;2023-03-26T04:50:05;101350.78;;;18.21;49.69
49397;BME280;35615;41.410;2.194;2023-03-26T04:52:35;101348.13;;;18.19;49.69
49397;BME280;35615;41.410;2.194;2023-03-26T04:55:26;101341.94;;;18.14;49.67
49397;BME280;35615;41.410;2.194;2023-03-26T04:58:04;101342.81;;;18.16;49.77
49397;BME280;35615;41.410;2.194;2023-03-26T05:00:53;101341.09;;;18.17;49.68
49397;BME280;35615;41.410;2.194;2023-03-26T05:03:24;101333.22;;;18.15;49.78
49397;BME280;35615;41.410;2.194;2023-03-26T05:05:53;101335.84;;;18.15;49.65
49397;BME280;35615;41.410;2.194;2023-03-26T05:08:21;101342.59;;;18.01;49.94
49397;BME280;35615;41.410;2.194;2023-03-26T05:10:49;101325.22;;;18.06;49.92
49397;BME280;35615;41.410;2.194;2023-03-26T05:13:26;101327.06;;;18.10;49.98
49397;BME280;35615;41.410;2.194;2023-03-26T05:15:56;101327.00;;;18.07;50.00
49397;BME280;35615;41.410;2.194;2023-03-26T05:18:49;101327.97;;;18.14;49.82
49397;BME280;35615;41.410;2.194;2023-03-26T05:21:18;101328.81;;;18.13;49.72
49397;BME280;35615;41.410;2.194;2023-03-26T05:23:45;101322.75;;;18.14;49.80
49397;BME280;35615;41.410;2.194;2023-03-26T05:26:20;101318.41;;;18.16;49.75
49397;BME280;35615;41.410;2.194;2023-03-26T05:28:49;101313.19;;;18.17;49.59
49397;BME280;35615;41.410;2.194;2023-03-26T05:31:32;101321.13;;;18.20;49.48
49397;BME280;35615;41.410;2.194;2023-03-26T05:34:02;101320.16;;;18.17;49.47
49397;BME280;35615;41.410;2.194;2023-03-26T05:36:30;101314.16;;;18.21;49.48
49397;BME280;35615;41.410;2.194;2023-03-26T05:39:08;101307.19;;;18.23;49.42
49397;BME280;35615;41.410;2.194;2023-03-26T05:41:54;101308.91;;;18.21;49.46
49397;BME280;35615;41.410;2.194;2023-03-26T05:44:28;101307.19;;;18.23;49.42
49397;BME280;35615;41.410;2.194;2023-03-26T05:46:58;101308.94;;;18.22;49.74
49397;BME280;35615;41.410;2.194;2023-03-26T05:49:27;101307.19;;;18.23;49.47
49397;BME280;35615;41.410;2.194;2023-03-26T05:51:54;101303.72;;;18.22;49.63
49397;BME280;35615;41.410;2.194;2023-03-26T05:54:36;101301.84;;;18.15;49.80
49397;BME280;35615;41.410;2.194;2023-03-26T05:57:31;101298.47;;;18.22;49.59
49397;BME280;35615;41.410;2.194;2023-03-26T06:00:17;101302.88;;;18.25;49.44
49397;BME280;35615;41.410;2.194;2023-03-26T06:02:51;101307.97;;;18.17;49.57
49397;BME280;35615;41.410;2.194;2023-03-26T06:05:44;101301.94;;;18.20;49.50
49397;BME280;35615;41.410;2.194;2023-03-26T06:08:16;101295.91;;;18.25;49.10
49397;BME280;35615;41.410;2.194;2023-03-26T06:10:50;101306.53;;;18.36;48.83
49397;BME280;35615;41.410;2.194;2023-03-26T06:13:18;101312.63;;;18.35;49.15
49397;BME280;35615;41.410;2.194;2023-03-26T06:15:47;101302.19;;;18.38;49.42
49397;BME280;35615;41.410;2.194;2023-03-26T06:18:40;101301.31;;;18.38;49.24
49397;BME280;35615;41.410;2.194;2023-03-26T06:21:26;101310.06;;;18.40;49.27
49397;BME280;35615;41.410;2.194;2023-03-26T06:24:01;101307.53;;;18.43;48.88
49397;BME280;35615;41.410;2.194;2023-03-26T06:26:39;101306.69;;;18.47;48.74
49397;BME280;35615;41.410;2.194;2023-03-26T06:29:31;101308.44;;;18.46;48.75
49397;BME280;35615;41.410;2.194;2023-03-26T06:32:10;101311.91;;;18.45;48.91
49397;BME280;35615;41.410;2.194;2023-03-26T06:35:18;101311.94;;;18.47;48.81
49397;BME280;35615;41.410;2.194;2023-03-26T06:37:45;101315.50;;;18.52;48.79
49397;BME280;35615;41.410;2.194;2023-03-26T06:40:13;101316.41;;;18.54;48.62
49397;BME280;35615;41.410;2.194;2023-03-26T06:42:52;101313.81;;;18.57;48.73
49397;BME280;35615;41.410;2.194;2023-03-26T06:46:11;101307.88;;;18.64;48.83
49397;BME280;35615;41.410;2.194;2023-03-26T06:49:18;101317.47;;;18.65;49.36
49397;BME280;35615;41.410;2.194;2023-03-26T06:52:16;101321.13;;;18.76;49.17
49397;BME280;35615;41.410;2.194;2023-03-26T06:55:06;101323.81;;;18.84;48.55
49397;BME280;35615;41.410;2.194;2023-03-26T06:57:53;101331.78;;;18.93;48.49
49397;BME280;35615;41.410;2.194;2023-03-26T07:00:41;101324.09;;;19.04;48.15
49397;BME280;35615;41.410;2.194;2023-03-26T07:03:31;101316.22;;;19.02;47.89
49397;BME280;35615;41.410;2.194;2023-03-26T07:06:17;101309.38;;;19.15;48.14
49397;BME280;35615;41.410;2.194;2023-03-26T07:09:03;101307.56;;;19.08;47.50
49397;BME280;35615;41.410;2.194;2023-03-26T07:11:52;101312.13;;;19.26;47.17
49397;BME280;35615;41.410;2.194;2023-03-26T07:14:42;101320.09;;;19.33;46.66
49397;BME280;35615;41.410;2.194;2023-03-26T07:17:41;101317.50;;;19.38;46.61
49397;BME280;35615;41.410;2.194;2023-03-26T07:20:21;101320.28;;;19.52;46.25
49397;BME280;35615;41.410;2.194;2023-03-26T07:22:49;101309.00;;;19.56;45.61
49397;BME280;35615;41.410;2.194;2023-03-26T07:25:39;101309.03;;;19.62;45.28
49397;BME280;35615;41.410;2.194;2023-03-26T07:34:49;101308.31;;;19.75;43.86
49397;BME280;35615;41.410;2.194;2023-03-26T07:41:18;101305.13;;;20.08;43.32
49397;BME280;35615;41.410;2.194;2023-03-26T07:47:19;101314.16;;;20.42;43.05
49397;BME280;35615;41.410;2.194;2023-03-26T07:50:22;101319.94;;;20.06;42.31
49397;BME280;35615;41.410;2.194;2023-03-26T07:52:59;101311.53;;;20.45;42.31
49397;BME280;35615;41.410;2.194;2023-03-26T07:56:14;101318.75;;;20.80;41.64
49397;BME280;35615;41.410;2.194;2023-03-26T07:59:11;101311.72;;;20.76;41.56
49397;BME280;35615;41.410;2.194;2023-03-26T08:02:38;101316.06;;;20.72;40.84
49397;BME280;35615;41.410;2.194;2023-03-26T08:15:09;101314.56;;;21.22;39.74
49397;BME280;35615;41.410;2.194;2023-03-26T08:26:03;101327.94;;;22.07;38.67
49397;BME280;35615;41.410;2.194;2023-03-26T08:28:54;101322.66;;;22.19;38.37
49397;BME280;35615;41.410;2.194;2023-03-26T08:31:33;101331.44;;;22.29;37.81
49397;BME280;35615;41.410;2.194;2023-03-26T08:34:04;101321.75;;;22.25;37.58
49397;BME280;35615;41.410;2.194;2023-03-26T08:36:39;101323.50;;;22.50;37.87
49397;BME280;35615;41.410;2.194;2023-03-26T08:39:09;101309.44;;;22.62;37.75
49397;BME280;35615;41.410;2.194;2023-03-26T08:45:05;101311.13;;;22.90;36.66
49397;BME280;35615;41.410;2.194;2023-03-26T08:54:45;101308.22;;;23.50;35.52
49397;BME280;35615;41.410;2.194;2023-03-26T09:15:38;101282.25;;;24.96;33.04
49397;BME280;35615;41.410;2.194;2023-03-26T09:55:59;101252.78;;;25.25;31.95
49397;BME280;35615;41.410;2.194;2023-03-26T10:01:43;101241.09;;;26.46;30.78
49397;BME280;35615;41.410;2.194;2023-03-26T10:04:55;101236.28;;;26.65;29.72
49397;BME280;35615;41.410;2.194;2023-03-26T10:08:09;101231.78;;;27.12;29.76
49397;BME280;35615;41.410;2.194;2023-03-26T10:11:06;101223.53;;;27.60;28.89
49397;BME280;35615;41.410;2.194;2023-03-26T10:14:10;101227.25;;;27.54;28.67
49397;BME280;35615;41.410;2.194;2023-03-26T10:33:17;101214.25;;;27.05;32.70
49397;BME280;35615;41.410;2.194;2023-03-26T10:36:27;101224.97;;;26.57;33.14
49397;BME280;35615;41.410;2.194;2023-03-26T10:52:05;101219.28;;;27.17;35.14
49397;BME280;35615;41.410;2.194;2023-03-26T10:55:08;101215.34;;;27.33;34.51
49397;BME280;35615;41.410;2.194;2023-03-26T11:00:16;101213.06;;;27.55;33.72
49397;BME280;35615;41.410;2.194;2023-03-26T11:09:17;101206.59;;;27.67;30.48
49397;BME280;35615;41.410;2.194;2023-03-26T11:15:27;101201.09;;;28.41;29.80
49397;BME280;35615;41.410;2.194;2023-03-26T11:21:11;101194.31;;;27.26;31.00
49397;BME280;35615;41.410;2.194;2023-03-26T11:27:13;101189.63;;;27.74;30.50
49397;BME280;35615;41.410;2.194;2023-03-26T11:35:51;101207.34;;;27.73;28.10
49397;BME280;35615;41.410;2.194;2023-03-26T11:38:36;101192.44;;;28.00;26.81
49397;BME280;35615;41.410;2.194;2023-03-26T11:41:30;101185.44;;;28.30;25.99
49397;BME280;35615;41.410;2.194;2023-03-26T11:44:53;101174.16;;;28.53;25.59
49397;BME280;35615;41.410;2.194;2023-03-26T11:47:54;101179.41;;;29.14;25.13
49397;BME280;35615;41.410;2.194;2023-03-26T11:50:52;101167.88;;;29.13;25.09
49397;BME280;35615;41.410;2.194;2023-03-26T11:53:28;101175.34;;;29.57;24.40
49397;BME280;35615;41.410;2.194;2023-03-26T12:04:46;101175.91;;;29.12;24.38
49397;BME280;35615;41.410;2.194;2023-03-26T12:07:33;101178.00;;;28.43;24.34
49397;BME280;35615;41.410;2.194;2023-03-26T12:16:10;101163.78;;;28.74;24.05
49397;BME280;35615;41.410;2.194;2023-03-26T12:18:56;101158.13;;;29.40;23.60
49397;BME280;35615;41.410;2.194;2023-03-26T12:21:26;101164.06;;;29.50;23.87
49397;BME280;35615;41.410;2.194;2023-03-26T12:24:11;101164.50;;;28.79;23.74
49397;BME280;35615;41.410;2.194;2023-03-26T12:35:54;101121.06;;;29.34;23.27
49397;BME280;35615;41.410;2.194;2023-03-26T12:38:49;101103.84;;;29.96;22.97
49397;BME280;35615;41.410;2.194;2023-03-26T12:42:11;101101.16;;;30.44;22.65
49397;BME280;35615;41.410;2.194;2023-03-26T12:45:36;101091.78;;;29.86;22.10
49397;BME280;35615;41.410;2.194;2023-03-26T12:48:38;101113.16;;;30.32;21.57
49397;BME280;35615;41.410;2.194;2023-03-26T12:56:51;101109.22;;;30.19;20.69
49397;BME280;35615;41.410;2.194;2023-03-26T13:05:08;101093.78;;;30.51;19.98
49397;BME280;35615;41.410;2.194;2023-03-26T13:10:55;101074.00;;;29.86;21.34
49397;BME280;35615;41.410;2.194;2023-03-26T13:16:58;101072.81;;;30.87;20.01
49397;BME280;35615;41.410;2.194;2023-03-26T13:19:42;101058.28;;;31.36;19.23
49397;BME280;35615;41.410;2.194;2023-03-26T13:22:38;101056.25;;;30.79;19.11
49397;BME280;35615;41.410;2.194;2023-03-26T13:28:32;101051.16;;;30.73;18.76
49397;BME280;35615;41.410;2.194;2023-03-26T13:31:22;101058.56;;;31.08;18.61
49397;BME280;35615;41.410;2.194;2023-03-26T13:37:10;101042.50;;;31.10;18.81
49397;BME280;35615;41.410;2.194;2023-03-26T13:40:14;101016.22;;;31.82;18.24
49397;BME280;35615;41.410;2.194;2023-03-26T13:43:08;101025.03;;;31.23;18.44
49397;BME280;35615;41.410;2.194;2023-03-26T13:54:38;101014.28;;;31.04;16.96
49397;BME280;35615;41.410;2.194;2023-03-26T13:57:35;101019.53;;;31.06;16.33
49397;BME280;35615;41.410;2.194;2023-03-26T14:00:29;101037.31;;;30.63;16.87
49397;BME280;35615;41.410;2.194;2023-03-26T14:03:17;101034.53;;;30.21;15.88
49397;BME280;35615;41.410;2.194;2023-03-26T14:05:55;101019.19;;;31.13;15.58
49397;BME280;35615;41.410;2.194;2023-03-26T14:08:37;101042.75;;;30.38;16.32
49397;BME280;35615;41.410;2.194;2023-03-26T14:11:21;101025.34;;;30.51;15.77
49397;BME280;35615;41.410;2.194;2023-03-26T14:16:58;101032.47;;;30.51;15.78
49397;BME280;35615;41.410;2.194;2023-03-26T14:41:51;101020.88;;;29.82;15.51
49397;BME280;35615;41.410;2.194;2023-03-26T14:44:35;101035.91;;;29.34;15.27
49397;BME280;35615;41.410;2.194;2023-03-26T14:47:23;101024.41;;;29.59;14.89
49397;BME280;35615;41.410;2.194;2023-03-26T15:04:26;101055.41;;;29.61;14.11
49397;BME280;35615;41.410;2.194;2023-03-26T15:14:28;101058.78;;;29.90;16.03
49397;BME280;35615;41.410;2.194;2023-03-26T15:29:16;101162.09;;;28.42;28.76
49397;BME280;35615;41.410;2.194;2023-03-26T15:33:08;101141.09;;;27.67;30.09
49397;BME280;35615;41.410;2.194;2023-03-26T15:39:09;101161.69;;;27.22;31.34
49397;BME280;35615;41.410;2.194;2023-03-26T15:42:24;101161.56;;;26.88;31.68
49397;BME280;35615;41.410;2.194;2023-03-26T15:48:30;101153.84;;;26.77;31.48
49397;BME280;35615;41.410;2.194;2023-03-26T15:54:28;101148.09;;;26.14;32.92
49397;BME280;35615;41.410;2.194;2023-03-26T16:12:44;101192.50;;;25.47;34.18
49397;BME280;35615;41.410;2.194;2023-03-26T16:15:33;101185.84;;;25.22;34.23
49397;BME280;35615;41.410;2.194;2023-03-26T16:24:22;101178.34;;;24.91;35.87
49397;BME280;35615;41.410;2.194;2023-03-26T16:27:24;101182.91;;;24.80;36.58
49397;BME280;35615;41.410;2.194;2023-03-26T16:30:13;101220.94;;;24.67;36.82
49397;BME280;35615;41.410;2.194;2023-03-26T16:36:45;101200.03;;;23.62;39.08
49397;BME280;35615;41.410;2.194;2023-03-26T16:39:40;101197.06;;;23.93;38.56
49397;BME280;35615;41.410;2.194;2023-03-26T16:48:20;101209.00;;;23.31;39.62
49397;BME280;35615;41.410;2.194;2023-03-26T16:50:57;101207.13;;;23.48;38.75
49397;BME280;35615;41.410;2.194;2023-03-26T17:03:40;101225.09;;;22.79;41.19
49397;BME280;35615;41.410;2.194;2023-03-26T17:12:51;101260.22;;;22.75;41.33
49397;BME280;35615;41.410;2.194;2023-03-26T17:15:30;101241.84;;;22.58;41.24
49397;BME280;35615;41.410;2.194;2023-03-26T17:18:29;101247.19;;;22.30;42.54
49397;BME280;35615;41.410;2.194;2023-03-26T17:21:44;101255.13;;;22.11;42.85
49397;BME280;35615;41.410;2.194;2023-03-26T17:25:00;101261.25;;;22.10;43.60
49397;BME280;35615;41.410;2.194;2023-03-26T17:34:41;101267.38;;;21.78;44.06
49397;BME280;35615;41.410;2.194;2023-03-26T17:37:38;101279.66;;;21.62;44.14
49397;BME280;35615;41.410;2.194;2023-03-26T17:40:43;101276.13;;;21.62;43.96
49397;BME280;35615;41.410;2.194;2023-03-26T17:52:10;101265.56;;;21.33;45.01
49397;BME280;35615;41.410;2.194;2023-03-26T17:54:56;101311.19;;;21.56;44.41
49397;BME280;35615;41.410;2.194;2023-03-26T17:57:57;101297.16;;;21.51;44.72
49397;BME280;35615;41.410;2.194;2023-03-26T18:00:54;101300.50;;;21.07;45.66
49397;BME280;35615;41.410;2.194;2023-03-26T18:04:05;101322.41;;;21.09;45.54
49397;BME280;35615;41.410;2.194;2023-03-26T18:24:04;101324.16;;;21.09;45.46
49397;BME280;35615;41.410;2.194;2023-03-26T18:26:52;101328.44;;;20.92;46.42
49397;BME280;35615;41.410;2.194;2023-03-26T18:32:53;101317.00;;;20.82;46.44
49397;BME280;35615;41.410;2.194;2023-03-26T18:35:53;101317.88;;;20.78;46.86
49397;BME280;35615;41.410;2.194;2023-03-26T18:38:41;101305.59;;;20.74;46.37
49397;BME280;35615;41.410;2.194;2023-03-26T18:41:31;101328.31;;;20.66;47.07
49397;BME280;35615;41.410;2.194;2023-03-26T18:44:10;101315.94;;;20.49;47.23
49397;BME280;35615;41.410;2.194;2023-03-26T18:46:43;101311.66;;;20.65;46.33
49397;BME280;35615;41.410;2.194;2023-03-26T18:49:27;101315.06;;;20.50;46.78
49397;BME280;35615;41.410;2.194;2023-03-26T18:52:08;101317.56;;;20.35;47.12
49397;BME280;35615;41.410;2.194;2023-03-26T18:54:45;101329.84;;;20.41;47.00
49397;BME280;35615;41.410;2.194;2023-03-26T18:57:26;101325.59;;;20.53;46.57
49397;BME280;35615;41.410;2.194;2023-03-26T19:00:34;101344.03;;;20.64;46.32
49397;BME280;35615;41.410;2.194;2023-03-26T19:03:17;101333.34;;;20.40;47.07
49397;BME280;35615;41.410;2.194;2023-03-26T19:05:52;101341.78;;;20.03;47.97
49397;BME280;35615;41.410;2.194;2023-03-26T19:08:33;101339.44;;;20.37;46.53
49397;BME280;35615;41.410;2.194;2023-03-26T19:11:18;101338.53;;;20.30;46.69
49397;BME280;35615;41.410;2.194;2023-03-26T19:14:14;101334.78;;;20.02;48.45
49397;BME280;35615;41.410;2.194;2023-03-26T19:17:02;101335.75;;;20.12;47.69
49397;BME280;35615;41.410;2.194;2023-03-26T19:19:40;101338.44;;;20.18;47.57
49397;BME280;35615;41.410;2.194;2023-03-26T19:22:39;101353.44;;;20.36;47.14
49397;BME280;35615;41.410;2.194;2023-03-26T19:26:03;101346.47;;;20.41;47.11
49397;BME280;35615;41.410;2.194;2023-03-26T19:28:30;101348.88;;;20.15;47.58
49397;BME280;35615;41.410;2.194;2023-03-26T19:31:21;101342.06;;;20.39;46.94
49397;BME280;35615;41.410;2.194;2023-03-26T19:34:13;101342.06;;;20.36;46.86
49397;BME280;35615;41.410;2.194;2023-03-26T19:37:02;101333.31;;;20.38;46.77
49397;BME280;35615;41.410;2.194;2023-03-26T19:40:12;101339.59;;;20.55;46.09
49397;BME280;35615;41.410;2.194;2023-03-26T19:42:52;101337.66;;;20.30;46.29
49397;BME280;35615;41.410;2.194;2023-03-26T19:48:04;101348.94;;;20.23;46.73
49397;BME280;35615;41.410;2.194;2023-03-26T19:51:13;101354.91;;;20.03;47.24
49397;BME280;35615;41.410;2.194;2023-03-26T19:53:51;101343.69;;;20.18;46.86
49397;BME280;35615;41.410;2.194;2023-03-26T19:56:29;101356.91;;;20.35;46.01
49397;BME280;35615;41.410;2.194;2023-03-26T19:58:57;101361.28;;;20.33;46.33
49397;BME280;35615;41.410;2.194;2023-03-26T20:01:28;101359.56;;;20.37;46.21
49397;BME280;35615;41.410;2.194;2023-03-26T20:04:14;101357.81;;;20.37;46.44
49397;BME280;35615;41.410;2.194;2023-03-26T20:06:47;101352.53;;;20.29;46.69
49397;BME280;35615;41.410;2.194;2023-03-26T20:09:22;101375.09;;;20.11;47.08
49397;BME280;35615;41.410;2.194;2023-03-26T20:11:55;101368.13;;;20.16;46.66
49397;BME280;35615;41.410;2.194;2023-03-26T20:14:22;101366.28;;;20.06;46.93
49397;BME280;35615;41.410;2.194;2023-03-26T20:17:11;101363.69;;;20.07;47.12
49397;BME280;35615;41.410;2.194;2023-03-26T20:19:40;101364.59;;;20.12;46.72
49397;BME280;35615;41.410;2.194;2023-03-26T20:22:16;101368.84;;;19.98;46.99
49397;BME280;35615;41.410;2.194;2023-03-26T20:24:56;101360.88;;;19.87;47.09
49397;BME280;35615;41.410;2.194;2023-03-26T20:27:26;101351.38;;;19.98;46.65
49397;BME280;35615;41.410;2.194;2023-03-26T20:29:55;101351.38;;;19.97;46.48
49397;BME280;35615;41.410;2.194;2023-03-26T20:32:24;101354.00;;;20.00;45.83
49397;BME280;35615;41.410;2.194;2023-03-26T20:34:58;101362.66;;;19.93;46.02
49397;BME280;35615;41.410;2.194;2023-03-26T20:37:28;101351.41;;;20.06;39.16
49397;BME280;35615;41.410;2.194;2023-03-26T20:40:05;101340.13;;;20.12;37.71